createdAt,value
2018-10-17T00:08:47.138Z,13.27
2018-10-17T00:18:51.238Z,12.80
2018-10-17T00:28:54.579Z,12.83
2018-10-17T00:38:57.907Z,13.10
2018-10-17T00:49:01.327Z,12.77
2018-10-17T00:59:11.312Z,13.87
2018-10-17T01:09:15.588Z,13.40
2018-10-17T01:19:18.974Z,13.50
2018-10-17T01:29:22.333Z,13.33
2018-10-17T01:39:26.088Z,12.53
2018-10-17T01:49:29.488Z,13.63
2018-10-17T01:59:33.250Z,14.40
2018-10-17T02:09:36.660Z,14.17
2018-10-17T02:19:40.013Z,12.97
2018-10-17T02:29:43.393Z,14.63
2018-10-17T02:39:46.888Z,14.50
2018-10-17T02:49:50.146Z,15.75
2018-10-17T02:59:53.483Z,15.37
2018-10-17T03:09:57.723Z,14.33
2018-10-17T03:20:01.135Z,15.03
2018-10-17T03:30:05.004Z,16.67
2018-10-17T03:40:08.367Z,15.70
2018-10-17T03:50:11.889Z,16.90
2018-10-17T04:00:15.270Z,16.10
2018-10-17T04:10:18.723Z,16.10
2018-10-17T04:20:22.076Z,16.80
2018-10-17T04:30:25.925Z,16.63
2018-10-17T04:40:29.292Z,18.37
2018-10-17T04:50:33.453Z,16.70
2018-10-17T05:00:40.559Z,15.43
2018-10-17T05:10:43.935Z,17.80
2018-10-17T05:20:47.312Z,16.40
2018-10-17T05:30:50.668Z,17.27
2018-10-17T05:40:54.126Z,18.03
2018-10-17T05:50:57.518Z,17.57
2018-10-17T06:01:00.933Z,16.77
2018-10-17T06:11:05.360Z,18.10
2018-10-17T06:21:08.772Z,17.07
2018-10-17T06:56:14.434Z,17.50
2018-10-17T07:06:17.899Z,17.70
2018-10-17T07:16:25.394Z,17.70
2018-10-17T07:26:28.924Z,18.03
2018-10-17T07:36:32.304Z,19.97
2018-10-17T07:46:36.827Z,20.00
2018-10-17T07:56:40.212Z,21.00
2018-10-17T08:06:43.603Z,21.30
2018-10-17T08:16:46.901Z,21.57
2018-10-17T08:26:51.274Z,22.37
2018-10-17T08:36:54.842Z,22.00
2018-10-17T08:46:58.706Z,26.17
2018-10-17T08:57:02.072Z,28.83
2018-10-17T09:07:09.131Z,34.10
2018-10-17T09:17:12.504Z,36.30
2018-10-17T09:27:15.916Z,35.87
2018-10-17T09:37:19.309Z,38.17
2018-10-17T09:47:23.305Z,39.37
2018-10-17T09:57:26.691Z,37.87
2018-10-17T10:07:30.119Z,37.87
2018-10-17T10:17:34.341Z,38.03
2018-10-17T10:27:37.916Z,38.43
2018-10-17T10:37:41.783Z,41.00
2018-10-17T10:47:45.191Z,39.43
2018-10-17T10:57:48.571Z,37.80
2018-10-17T11:07:52.001Z,39.57
2018-10-17T11:17:55.382Z,42.07
2018-10-17T11:27:58.927Z,39.87
2018-10-17T11:38:02.478Z,42.20
2018-10-17T11:48:06.660Z,41.20
2018-10-17T11:58:10.966Z,40.57
2018-10-17T12:08:14.667Z,38.47
2018-10-17T12:18:18.144Z,38.27
2018-10-17T12:28:21.792Z,37.00
2018-10-17T12:38:25.144Z,38.47
2018-10-17T12:48:29.259Z,35.50
2018-10-17T12:58:33.326Z,35.70
2018-10-17T13:08:36.929Z,37.77
2018-10-17T13:18:40.320Z,38.53
2018-10-17T13:28:43.705Z,36.17
2018-10-17T13:38:47.204Z,35.23
2018-10-17T13:48:50.709Z,33.30
2018-10-17T13:58:54.697Z,33.20
2018-10-17T14:08:58.145Z,34.17
2018-10-17T14:19:01.550Z,33.58
2018-10-17T14:29:05.130Z,29.70
2018-10-17T14:39:11.661Z,30.37
2018-10-17T14:49:15.048Z,33.50
2018-10-17T14:59:18.751Z,33.70
2018-10-17T15:09:22.088Z,36.03
2018-10-17T15:19:26.303Z,36.97
2018-10-17T15:29:29.653Z,35.13
2018-10-17T15:39:33.780Z,33.40
2018-10-17T15:49:38.504Z,33.27
2018-10-17T15:59:41.861Z,27.10
2018-10-17T16:09:45.866Z,25.10
2018-10-17T16:19:49.280Z,23.97
2018-10-17T16:29:52.725Z,24.30
2018-10-17T16:40:01.989Z,22.20
2018-10-17T16:50:05.965Z,19.90
2018-10-17T17:00:13.302Z,20.03
2018-10-17T17:10:20.849Z,19.90
2018-10-17T17:20:24.856Z,20.43
2018-10-17T17:30:28.231Z,20.43
2018-10-17T17:40:31.614Z,21.67
2018-10-17T17:50:35.002Z,20.13
2018-10-17T18:00:44.255Z,21.40
2018-10-17T18:10:48.308Z,22.33
2018-10-17T18:20:51.703Z,23.60
2018-10-17T18:30:55.961Z,24.00
2018-10-17T18:40:59.336Z,21.57
2018-10-17T18:51:03.023Z,22.27
2018-10-17T19:01:06.351Z,22.47
2018-10-17T19:11:12.650Z,23.20
2018-10-17T19:21:16.132Z,25.47
2018-10-17T19:31:19.585Z,25.47
2018-10-17T19:41:23.006Z,26.57
2018-10-17T19:51:26.487Z,24.97
2018-10-17T20:01:30.896Z,24.00
2018-10-17T20:11:34.573Z,23.97
2018-10-17T20:21:38.547Z,23.20
2018-10-17T20:31:42.712Z,21.30
2018-10-17T20:41:46.207Z,20.53
2018-10-17T20:51:49.927Z,21.00
2018-10-17T21:01:53.946Z,19.87
2018-10-17T21:11:57.322Z,18.80
2018-10-17T21:22:01.499Z,18.30
2018-10-17T21:32:05.278Z,19.70
2018-10-17T21:42:08.771Z,17.77
2018-10-17T21:52:13.111Z,18.97
2018-10-17T22:02:16.728Z,18.40
2018-10-17T22:12:23.849Z,17.87
2018-10-17T22:22:27.609Z,19.57
2018-10-17T22:32:31.159Z,20.47
2018-10-17T22:42:34.548Z,18.43
2018-10-17T22:52:42.297Z,18.47
2018-10-17T23:02:48.160Z,19.47
2018-10-17T23:12:51.563Z,18.43
2018-10-17T23:22:54.915Z,18.97
2018-10-17T23:32:58.279Z,16.47
2018-10-17T23:43:01.664Z,16.70
2018-10-17T23:53:05.068Z,16.57
